createdAt,value
2023-03-02T00:01:55.025Z,14.48
2023-03-02T00:04:27.358Z,13.35
2023-03-02T00:07:01.299Z,16.52
2023-03-02T00:09:30.340Z,13.23
2023-03-02T00:11:58.988Z,12.55
2023-03-02T00:14:27.712Z,16.67
2023-03-02T00:16:56.110Z,13.05
2023-03-02T00:19:24.543Z,12.70
2023-03-02T00:21:53.070Z,12.50
2023-03-02T00:24:22.860Z,17.70
2023-03-02T00:26:51.249Z,17.55
2023-03-02T00:29:19.742Z,13.85
2023-03-02T00:31:48.258Z,11.73
2023-03-02T00:34:16.835Z,12.52
2023-03-02T00:36:45.310Z,17.10
2023-03-02T00:39:14.167Z,14.30
2023-03-02T00:41:44.044Z,14.10
2023-03-02T00:44:17.613Z,15.27
2023-03-02T00:46:46.678Z,11.73
2023-03-02T00:49:15.144Z,13.07
2023-03-02T00:51:43.625Z,10.10
2023-03-02T00:54:12.131Z,11.77
2023-03-02T00:56:40.559Z,13.73
2023-03-02T00:59:26.517Z,12.40
2023-03-02T01:01:58.244Z,14.98
2023-03-02T01:04:29.839Z,21.85
2023-03-02T01:06:58.507Z,10.80
2023-03-02T01:09:27.692Z,13.38
2023-03-02T01:11:56.226Z,13.45
2023-03-02T01:14:26.642Z,12.20
2023-03-02T01:16:55.760Z,12.52
2023-03-02T01:19:24.510Z,11.38
2023-03-02T01:21:53.109Z,11.85
2023-03-02T01:24:21.569Z,13.70
2023-03-02T01:26:50.216Z,10.73
2023-03-02T01:29:18.817Z,10.60
2023-03-02T01:31:48.776Z,13.05
2023-03-02T01:34:17.517Z,10.70
2023-03-02T01:36:46.444Z,10.07
2023-03-02T01:39:16.085Z,16.25
2023-03-02T01:41:45.010Z,12.90
2023-03-02T01:44:39.603Z,19.38
2023-03-02T01:47:15.459Z,12.02
2023-03-02T01:49:51.133Z,10.85
2023-03-02T01:52:20.576Z,10.32
2023-03-02T01:54:50.669Z,12.55
2023-03-02T01:57:24.065Z,16.15
2023-03-02T01:59:57.131Z,10.95
2023-03-02T02:02:27.769Z,16.95
2023-03-02T02:04:57.484Z,20.73
2023-03-02T02:07:25.908Z,12.27
2023-03-02T02:09:56.643Z,11.05
2023-03-02T02:12:25.219Z,11.73
2023-03-02T02:14:55.093Z,9.45
2023-03-02T02:17:23.637Z,13.35
2023-03-02T02:20:05.941Z,12.38
2023-03-02T02:22:50.690Z,13.70
2023-03-02T02:25:34.045Z,12.13
2023-03-02T02:28:14.540Z,10.55
2023-03-02T02:30:44.150Z,7.75
2023-03-02T02:33:17.588Z,11.05
2023-03-02T02:35:47.917Z,18.80
2023-03-02T02:38:20.270Z,9.15
2023-03-02T02:40:52.822Z,11.73
2023-03-02T02:43:24.053Z,14.43
2023-03-02T02:45:56.476Z,9.95
2023-03-02T02:48:27.028Z,9.88
2023-03-02T02:51:00.430Z,9.20
2023-03-02T02:53:34.068Z,10.43
2023-03-02T02:56:03.938Z,12.18
2023-03-02T02:58:36.884Z,10.25
2023-03-02T03:01:06.179Z,10.48
2023-03-02T03:03:37.471Z,12.10
2023-03-02T03:06:08.349Z,11.30
2023-03-02T03:08:51.965Z,9.60
2023-03-02T03:11:24.445Z,11.23
2023-03-02T03:13:59.712Z,10.00
2023-03-02T03:16:31.104Z,10.85
2023-03-02T03:19:06.537Z,8.25
2023-03-02T03:21:35.141Z,10.55
2023-03-02T03:24:03.534Z,11.00
2023-03-02T03:26:32.257Z,8.57
2023-03-02T03:29:02.981Z,10.48
2023-03-02T03:31:31.380Z,13.45
2023-03-02T03:34:00.557Z,15.80
2023-03-02T03:36:29.980Z,13.75
2023-03-02T03:38:59.746Z,11.45
2023-03-02T03:41:28.444Z,14.00
2023-03-02T03:43:56.830Z,13.68
2023-03-02T03:46:32.024Z,8.52
2023-03-02T03:49:01.460Z,10.73
2023-03-02T03:51:34.991Z,8.27
2023-03-02T03:54:04.206Z,9.68
2023-03-02T03:56:34.642Z,11.40
2023-03-02T03:59:07.218Z,11.32
2023-03-02T04:01:39.706Z,9.05
2023-03-02T04:04:10.058Z,10.45
2023-03-02T04:06:38.603Z,11.27
2023-03-02T04:09:09.836Z,15.32
2023-03-02T04:11:40.802Z,11.23
2023-03-02T04:14:10.375Z,11.65
2023-03-02T04:16:41.057Z,11.63
2023-03-02T04:19:10.210Z,14.50
2023-03-02T04:21:39.183Z,12.65
2023-03-02T04:24:08.242Z,13.25
2023-03-02T04:26:37.699Z,8.70
2023-03-02T04:29:07.140Z,9.65
2023-03-02T04:31:35.996Z,12.70
2023-03-02T04:34:06.867Z,10.63
2023-03-02T04:36:37.728Z,10.40
2023-03-02T04:39:07.608Z,10.70
2023-03-02T04:41:36.485Z,10.48
2023-03-02T04:44:05.099Z,10.15
2023-03-02T04:46:35.019Z,9.75
2023-03-02T04:49:05.729Z,10.68
2023-03-02T04:51:36.608Z,8.73
2023-03-02T04:54:09.652Z,12.38
2023-03-02T04:56:38.071Z,10.35
2023-03-02T04:59:06.918Z,9.43
2023-03-02T05:01:35.356Z,10.43
2023-03-02T05:04:05.656Z,9.13
2023-03-02T05:06:34.830Z,10.35
2023-03-02T05:09:04.709Z,10.35
2023-03-02T05:11:33.537Z,12.27
2023-03-02T05:14:04.207Z,15.10
2023-03-02T05:16:35.475Z,14.43
2023-03-02T05:19:07.790Z,9.55
2023-03-02T05:21:36.641Z,15.75
2023-03-02T05:24:05.945Z,8.77
2023-03-02T05:26:34.796Z,11.25
2023-03-02T05:29:03.535Z,18.38
2023-03-02T05:31:35.956Z,12.32
2023-03-02T05:34:08.907Z,10.38
2023-03-02T05:36:38.553Z,20.92
2023-03-02T05:39:10.203Z,12.98
2023-03-02T05:41:39.361Z,12.65
2023-03-02T05:44:11.793Z,14.73
2023-03-02T05:46:40.864Z,9.10
2023-03-02T05:49:10.682Z,11.00
2023-03-02T05:51:39.934Z,14.60
2023-03-02T05:54:08.837Z,9.80
2023-03-02T05:56:37.605Z,9.73
2023-03-02T05:59:09.036Z,14.02
2023-03-02T06:01:38.468Z,10.20
2023-03-02T06:04:07.156Z,11.40
2023-03-02T06:06:37.147Z,11.60
2023-03-02T06:09:05.829Z,9.45
2023-03-02T06:11:34.240Z,12.45
2023-03-02T06:14:02.924Z,12.57
2023-03-02T06:16:33.714Z,14.60
2023-03-02T06:19:02.627Z,13.65
2023-03-02T06:21:30.971Z,16.10
2023-03-02T06:24:03.020Z,10.65
2023-03-02T06:26:32.032Z,10.05
2023-03-02T06:29:09.784Z,11.07
2023-03-02T06:31:41.097Z,10.63
2023-03-02T06:34:09.796Z,10.45
2023-03-02T06:36:38.996Z,10.55
2023-03-02T06:39:16.693Z,12.45
2023-03-02T06:41:47.802Z,13.95
2023-03-02T06:44:18.085Z,12.35
2023-03-02T06:46:47.613Z,13.05
2023-03-02T06:49:16.375Z,12.55
2023-03-02T06:51:44.848Z,16.70
2023-03-02T06:54:14.959Z,15.65
2023-03-02T06:56:44.771Z,13.77
2023-03-02T06:59:13.262Z,16.27
2023-03-02T07:01:43.699Z,16.42
2023-03-02T07:04:13.434Z,15.13
2023-03-02T07:06:41.937Z,9.70
2023-03-02T07:09:10.333Z,13.18
2023-03-02T07:11:40.093Z,11.95
2023-03-02T07:14:08.536Z,11.48
2023-03-02T07:16:37.038Z,12.20
2023-03-02T07:19:07.877Z,11.55
2023-03-02T07:21:36.807Z,13.57
2023-03-02T07:24:05.691Z,15.68
2023-03-02T07:26:34.343Z,19.13
2023-03-02T07:29:04.360Z,17.08
2023-03-02T07:31:33.095Z,14.15
2023-03-02T07:34:03.087Z,13.25
2023-03-02T07:36:32.987Z,13.63
2023-03-02T07:39:05.660Z,17.30
2023-03-02T07:41:34.368Z,15.82
2023-03-02T07:44:09.320Z,13.98
2023-03-02T07:46:38.053Z,15.32
2023-03-02T07:49:06.660Z,16.05
2023-03-02T07:51:37.248Z,12.80
2023-03-02T07:54:05.754Z,18.70
2023-03-02T07:56:34.162Z,15.60
2023-03-02T07:59:05.305Z,15.00
2023-03-02T08:01:34.107Z,16.90
2023-03-02T08:04:02.663Z,15.55
2023-03-02T08:06:31.145Z,18.27
2023-03-02T08:09:00.248Z,17.55
2023-03-02T08:11:28.596Z,14.95
2023-03-02T08:14:01.329Z,16.02
2023-03-02T08:16:32.085Z,16.48
2023-03-02T08:19:00.482Z,15.48
2023-03-02T08:21:29.874Z,16.00
2023-03-02T08:23:58.963Z,18.08
2023-03-02T08:26:27.815Z,20.77
2023-03-02T08:28:56.564Z,16.48
2023-03-02T08:31:25.027Z,19.48
2023-03-02T08:33:55.124Z,17.55
2023-03-02T08:36:23.917Z,18.77
2023-03-02T08:38:53.268Z,17.33
2023-03-02T08:41:24.127Z,15.85
2023-03-02T08:43:54.191Z,15.70
2023-03-02T08:46:23.904Z,17.92
2023-03-02T08:48:52.256Z,15.18
2023-03-02T08:51:23.858Z,22.00
2023-03-02T08:53:55.043Z,17.60
2023-03-02T08:56:28.056Z,18.58
2023-03-02T08:58:59.859Z,13.80
2023-03-02T09:01:30.486Z,14.55
2023-03-02T09:04:00.730Z,13.55
2023-03-02T09:06:32.413Z,14.55
2023-03-02T09:09:01.451Z,13.88
2023-03-02T09:11:30.249Z,16.65
2023-03-02T09:13:58.668Z,15.25
2023-03-02T09:16:27.160Z,15.93
2023-03-02T09:18:56.048Z,15.55
2023-03-02T09:21:25.540Z,13.02
2023-03-02T09:23:59.752Z,12.45
2023-03-02T09:26:28.756Z,11.88
2023-03-02T09:28:57.415Z,12.05
2023-03-02T09:31:27.885Z,15.80
2023-03-02T09:33:57.985Z,12.77
2023-03-02T09:36:27.554Z,12.02
2023-03-02T09:38:57.505Z,14.27
2023-03-02T09:42:06.625Z,13.57
2023-03-02T09:45:00.101Z,12.43
2023-03-02T09:47:37.116Z,14.27
2023-03-02T09:50:26.549Z,13.82
2023-03-02T09:53:16.733Z,15.15
2023-03-02T09:55:52.772Z,17.13
2023-03-02T09:58:25.456Z,15.52
2023-03-02T10:00:53.996Z,10.43
2023-03-02T10:03:29.033Z,9.82
2023-03-02T10:05:58.879Z,12.40
2023-03-02T10:08:30.531Z,14.18
2023-03-02T10:11:07.166Z,13.40
2023-03-02T10:13:44.250Z,10.20
2023-03-02T10:16:22.691Z,10.13
2023-03-02T10:18:59.968Z,11.05
2023-03-02T10:21:34.061Z,11.32
2023-03-02T10:24:08.822Z,11.52
2023-03-02T10:26:42.005Z,10.68
2023-03-02T10:29:32.694Z,13.27
2023-03-02T10:32:09.113Z,12.30
2023-03-02T10:34:39.555Z,9.52
2023-03-02T10:37:15.515Z,10.77
2023-03-02T10:39:47.070Z,10.52
2023-03-02T10:42:21.574Z,9.15
2023-03-02T10:44:53.578Z,10.50
2023-03-02T10:47:28.744Z,10.73
2023-03-02T10:49:58.649Z,12.00
2023-03-02T10:52:28.639Z,11.07
2023-03-02T10:55:04.701Z,13.15
2023-03-02T10:57:39.006Z,11.38
2023-03-02T11:00:18.430Z,10.35
2023-03-02T11:02:51.975Z,8.55
2023-03-02T11:05:24.051Z,12.18
2023-03-02T11:07:54.763Z,11.65
2023-03-02T11:10:25.354Z,12.85
2023-03-02T11:12:55.125Z,13.02
2023-03-02T11:15:29.459Z,12.27
2023-03-02T11:18:05.269Z,16.60
2023-03-02T11:20:37.006Z,9.43
2023-03-02T11:23:19.543Z,8.38
2023-03-02T11:25:53.675Z,8.38
2023-03-02T11:28:34.714Z,9.55
2023-03-02T11:31:07.668Z,11.80
2023-03-02T11:33:40.645Z,8.98
2023-03-02T11:36:15.379Z,8.18
2023-03-02T11:38:48.587Z,8.25
2023-03-02T11:41:29.653Z,8.13
2023-03-02T11:44:02.272Z,8.98
2023-03-02T11:46:33.291Z,10.85
2023-03-02T11:49:06.003Z,11.25
2023-03-02T11:51:39.079Z,9.32
2023-03-02T11:54:33.774Z,10.45
2023-03-02T11:57:02.600Z,11.45
2023-03-02T11:59:33.068Z,10.05
2023-03-02T12:02:02.700Z,9.40
2023-03-02T12:04:33.978Z,9.05
2023-03-02T12:07:05.234Z,9.55
2023-03-02T12:09:37.215Z,11.23
2023-03-02T12:12:30.530Z,9.80
2023-03-02T12:15:00.760Z,10.65
2023-03-02T12:17:35.539Z,9.40
2023-03-02T12:20:24.823Z,11.02
2023-03-02T12:22:53.757Z,12.13
2023-03-02T12:25:38.025Z,8.30
2023-03-02T12:28:06.761Z,10.50
2023-03-02T12:30:37.762Z,8.50
2023-03-02T12:33:19.597Z,10.02
2023-03-02T12:35:49.968Z,11.02
2023-03-02T12:38:31.153Z,10.95
2023-03-02T12:41:25.405Z,7.97
2023-03-02T12:44:08.665Z,13.23
2023-03-02T12:46:40.286Z,7.93
2023-03-02T12:49:28.284Z,9.40
2023-03-02T12:51:58.084Z,10.15
2023-03-02T12:54:28.211Z,12.18
2023-03-02T12:57:08.861Z,8.00
2023-03-02T12:59:39.236Z,11.98
2023-03-02T13:02:18.202Z,12.18
2023-03-02T13:04:54.690Z,11.43
2023-03-02T13:07:26.519Z,9.93
2023-03-02T13:09:58.174Z,10.80
2023-03-02T13:12:29.212Z,13.63
2023-03-02T13:14:59.575Z,9.18
2023-03-02T13:17:31.648Z,11.20
2023-03-02T13:20:02.422Z,8.18
2023-03-02T13:22:31.332Z,10.15
2023-03-02T13:25:02.274Z,9.30
2023-03-02T13:27:31.560Z,10.68
2023-03-02T13:30:12.543Z,9.73
2023-03-02T13:32:43.253Z,10.00
2023-03-02T13:35:24.951Z,12.23
2023-03-02T13:38:01.235Z,12.48
2023-03-02T13:40:41.448Z,9.30
2023-03-02T13:43:35.480Z,11.85
2023-03-02T13:46:06.356Z,9.35
2023-03-02T13:48:36.108Z,8.30
2023-03-02T13:51:16.642Z,11.55
2023-03-02T13:53:54.020Z,9.88
2023-03-02T13:56:28.972Z,9.95
2023-03-02T13:58:59.128Z,8.93
2023-03-02T14:01:28.603Z,11.32
2023-03-02T14:04:00.477Z,10.82
2023-03-02T14:06:29.033Z,11.07
2023-03-02T14:08:57.612Z,8.68
2023-03-02T14:11:36.766Z,11.27
2023-03-02T14:14:06.676Z,12.00
2023-03-02T14:16:39.397Z,9.88
2023-03-02T14:19:11.547Z,10.80
2023-03-02T14:21:42.019Z,14.32
2023-03-02T14:24:10.754Z,13.98
2023-03-02T14:26:43.497Z,11.70
2023-03-02T14:29:22.335Z,16.00
2023-03-02T14:31:51.351Z,11.43
2023-03-02T14:34:21.139Z,14.43
2023-03-02T14:36:52.174Z,11.15
2023-03-02T14:39:24.986Z,14.82
2023-03-02T14:41:55.438Z,15.05
2023-03-02T14:44:24.222Z,13.98
2023-03-02T14:46:53.254Z,11.63
2023-03-02T14:49:23.027Z,13.60
2023-03-02T14:51:58.937Z,14.32
2023-03-02T14:54:28.297Z,13.18
2023-03-02T14:56:56.722Z,14.05
2023-03-02T14:59:25.024Z,16.33
2023-03-02T15:01:53.433Z,12.98
2023-03-02T15:04:23.151Z,12.05
2023-03-02T15:06:51.702Z,13.48
2023-03-02T15:09:20.060Z,13.57
2023-03-02T15:11:48.532Z,17.80
2023-03-02T15:14:17.154Z,16.80
2023-03-02T15:16:45.843Z,15.60
2023-03-02T15:19:14.808Z,15.30
2023-03-02T15:21:46.380Z,12.38
2023-03-02T15:24:14.966Z,12.57
2023-03-02T15:26:43.256Z,12.48
2023-03-02T15:29:11.813Z,12.43
2023-03-02T15:31:40.583Z,17.85
2023-03-02T15:34:10.614Z,12.13
2023-03-02T15:36:39.678Z,19.52
2023-03-02T15:39:13.673Z,15.23
2023-03-02T15:41:43.641Z,18.10
2023-03-02T15:44:21.444Z,14.93
2023-03-02T15:46:51.893Z,14.80
2023-03-02T15:49:22.832Z,15.70
2023-03-02T15:51:52.826Z,13.60
2023-03-02T15:54:22.901Z,15.90
2023-03-02T15:56:53.119Z,14.57
2023-03-02T15:59:22.180Z,13.82
2023-03-02T16:01:52.614Z,13.55
2023-03-02T16:04:21.065Z,16.73
2023-03-02T16:06:49.625Z,18.00
2023-03-02T16:09:18.201Z,15.38
2023-03-02T16:11:49.379Z,15.60
2023-03-02T16:14:18.008Z,18.77
2023-03-02T16:16:47.084Z,14.82
2023-03-02T16:19:19.195Z,13.00
2023-03-02T16:21:48.222Z,15.50
2023-03-02T16:24:17.311Z,17.13
2023-03-02T16:26:46.192Z,17.73
2023-03-02T16:29:15.912Z,17.35
2023-03-02T16:31:46.613Z,19.75
2023-03-02T16:34:15.266Z,18.98
2023-03-02T16:36:43.832Z,17.48
2023-03-02T16:39:13.855Z,16.98
2023-03-02T16:41:44.123Z,16.23
2023-03-02T16:44:13.388Z,18.98
2023-03-02T16:46:43.353Z,17.20
2023-03-02T16:52:05.193Z,21.48
2023-03-02T16:54:33.578Z,20.45
2023-03-02T16:57:03.763Z,20.63
2023-03-02T16:59:32.090Z,20.63
2023-03-02T17:02:01.962Z,22.15
2023-03-02T17:04:30.463Z,24.60
2023-03-02T17:07:00.879Z,27.95
2023-03-02T17:09:30.188Z,25.15
2023-03-02T17:11:58.632Z,25.17
2023-03-02T17:14:27.397Z,25.52
2023-03-02T17:16:56.328Z,23.60
2023-03-02T17:19:29.328Z,25.45
2023-03-02T17:21:59.065Z,28.83
2023-03-02T17:24:28.225Z,29.58
2023-03-02T17:26:59.403Z,27.00
2023-03-02T17:29:28.726Z,23.85
2023-03-02T17:31:59.018Z,27.52
2023-03-02T17:34:31.204Z,24.33
2023-03-02T17:37:00.583Z,25.50
2023-03-02T17:39:34.111Z,21.17
2023-03-02T17:42:02.440Z,25.52
2023-03-02T17:44:34.387Z,27.83
2023-03-02T17:47:03.893Z,21.80
2023-03-02T17:49:33.643Z,24.42
2023-03-02T17:52:02.108Z,24.45
2023-03-02T17:54:30.794Z,22.27
2023-03-02T17:56:59.469Z,26.08
2023-03-02T17:59:27.789Z,22.63
2023-03-02T18:01:56.674Z,25.08
2023-03-02T18:04:25.091Z,23.08
2023-03-02T18:06:54.925Z,27.35
2023-03-02T18:09:23.371Z,28.35
2023-03-02T18:11:51.803Z,28.33
2023-03-02T18:14:21.537Z,22.92
2023-03-02T18:16:49.911Z,24.70
2023-03-02T18:19:18.292Z,26.65
2023-03-02T18:21:46.717Z,24.17
2023-03-02T18:24:16.499Z,24.55
2023-03-02T18:26:45.111Z,26.17
2023-03-02T18:29:13.780Z,26.10
2023-03-02T18:31:42.358Z,24.98
2023-03-02T18:34:11.250Z,25.08
2023-03-02T18:36:39.721Z,26.35
2023-03-02T18:39:08.649Z,26.52
2023-03-02T18:41:38.339Z,28.27
2023-03-02T18:44:07.487Z,27.27
2023-03-02T18:46:36.100Z,28.20
2023-03-02T18:49:04.612Z,29.42
2023-03-02T18:51:33.176Z,33.90
2023-03-02T18:54:01.890Z,31.20
2023-03-02T18:56:30.558Z,32.60
2023-03-02T18:59:00.371Z,28.42
2023-03-02T19:01:31.718Z,29.20
2023-03-02T19:04:02.142Z,30.52
2023-03-02T19:06:30.985Z,29.65
2023-03-02T19:08:59.391Z,26.77
2023-03-02T19:11:27.827Z,33.15
2023-03-02T19:13:56.477Z,29.75
2023-03-02T19:16:26.244Z,32.42
2023-03-02T19:18:54.779Z,35.75
2023-03-02T19:21:23.135Z,33.20
2023-03-02T19:23:51.777Z,31.63
2023-03-02T19:26:20.301Z,34.63
2023-03-02T19:28:48.907Z,37.22
2023-03-02T19:31:17.697Z,32.15
2023-03-02T19:33:47.867Z,36.05
2023-03-02T19:36:16.602Z,40.42
2023-03-02T19:38:45.161Z,43.60
2023-03-02T19:41:16.307Z,47.92
2023-03-02T19:43:45.905Z,37.95
2023-03-02T19:46:15.634Z,38.55
2023-03-02T19:48:44.219Z,37.33
2023-03-02T19:51:15.640Z,41.50
2023-03-02T19:53:47.076Z,43.47
2023-03-02T19:56:16.476Z,42.13
2023-03-02T19:58:50.373Z,43.50
2023-03-02T20:01:21.526Z,46.35
2023-03-02T20:03:51.740Z,44.63
2023-03-02T20:06:23.341Z,42.28
2023-03-02T20:08:52.448Z,46.88
2023-03-02T20:11:21.268Z,47.28
2023-03-02T20:13:50.582Z,47.58
2023-03-02T20:16:23.009Z,45.95
2023-03-02T20:18:52.407Z,56.42
2023-03-02T20:21:25.871Z,46.15
2023-03-02T20:23:54.976Z,46.40
2023-03-02T20:26:27.680Z,56.40
2023-03-02T20:28:58.016Z,56.15
2023-03-02T20:31:27.401Z,51.92
2023-03-02T20:33:59.063Z,55.97
2023-03-02T20:36:32.695Z,59.70
2023-03-02T20:39:05.251Z,57.88
2023-03-02T20:41:34.117Z,59.05
2023-03-02T20:44:04.446Z,55.40
2023-03-02T20:46:36.381Z,65.68
2023-03-02T20:49:05.885Z,67.22
2023-03-02T20:51:35.931Z,69.50
2023-03-02T20:54:05.386Z,61.50
2023-03-02T20:56:33.877Z,63.13
2023-03-02T20:59:02.827Z,65.07
2023-03-02T21:01:31.600Z,64.93
2023-03-02T21:04:00.115Z,61.60
2023-03-02T21:06:29.469Z,70.28
2023-03-02T21:09:00.111Z,68.85
2023-03-02T21:11:29.451Z,61.58
2023-03-02T21:13:59.413Z,60.95
2023-03-02T21:16:30.148Z,64.40
2023-03-02T21:18:59.184Z,63.53
2023-03-02T21:21:40.661Z,62.85
2023-03-02T21:24:13.228Z,61.42
2023-03-02T21:26:44.157Z,66.63
2023-03-02T21:29:12.933Z,62.85
2023-03-02T21:31:43.725Z,63.58
2023-03-02T21:34:13.279Z,63.25
2023-03-02T21:36:44.175Z,57.85
2023-03-02T21:39:15.560Z,59.60
2023-03-02T21:41:44.571Z,60.10
2023-03-02T21:44:13.319Z,55.58
2023-03-02T21:46:44.519Z,53.30
2023-03-02T21:49:17.137Z,50.40
2023-03-02T21:51:48.087Z,46.15
2023-03-02T21:54:18.801Z,51.45
2023-03-02T21:56:47.611Z,51.28
2023-03-02T21:59:16.505Z,44.78
2023-03-02T22:01:45.249Z,54.50
2023-03-02T22:04:13.960Z,50.58
2023-03-02T22:06:42.858Z,44.58
2023-03-02T22:09:12.403Z,48.55
2023-03-02T22:11:42.799Z,45.85
2023-03-02T22:14:13.983Z,47.85
2023-03-02T22:16:46.486Z,50.17
2023-03-02T22:19:25.278Z,45.67
2023-03-02T22:24:25.340Z,42.20
2023-03-02T22:26:59.695Z,41.50
2023-03-02T22:29:31.435Z,44.60
2023-03-02T22:32:14.089Z,42.40
2023-03-02T22:34:44.287Z,41.60
2023-03-02T22:37:15.122Z,42.55
2023-03-02T22:39:43.625Z,43.15
2023-03-02T22:42:17.184Z,43.80
2023-03-02T22:44:52.468Z,41.58
2023-03-02T22:47:21.444Z,44.20
2023-03-02T22:49:57.534Z,41.50
2023-03-02T22:52:36.114Z,39.92
2023-03-02T22:57:49.578Z,45.92
2023-03-02T23:00:40.453Z,42.53
2023-03-02T23:03:17.668Z,41.13
2023-03-02T23:05:49.172Z,43.05
2023-03-02T23:08:22.208Z,38.15
2023-03-02T23:10:52.492Z,41.58
2023-03-02T23:13:26.936Z,41.85
2023-03-02T23:15:56.075Z,46.08
2023-03-02T23:18:27.536Z,47.33
2023-03-02T23:20:56.831Z,44.20
2023-03-02T23:23:27.632Z,48.25
2023-03-02T23:25:56.322Z,43.45
2023-03-02T23:28:26.161Z,46.78
2023-03-02T23:30:54.687Z,46.60
2023-03-02T23:33:23.293Z,47.80
2023-03-02T23:35:51.752Z,44.58
2023-03-02T23:38:20.381Z,48.50
2023-03-02T23:40:48.982Z,44.40
2023-03-02T23:43:17.529Z,44.53
2023-03-02T23:45:47.332Z,48.58
2023-03-02T23:48:16.435Z,43.95
2023-03-02T23:50:45.453Z,40.53
2023-03-02T23:53:14.208Z,43.35
2023-03-02T23:55:48.019Z,40.42
2023-03-02T23:58:17.084Z,43.78
